Sugar Land, TX

2:47 PM CDT on August 28, 2015 (GMT -0500)
Commonwealth | | Change Station
CLOSE
Current Station
Personal Weather Station
Location: Sugar Land, TX
Elevation: 67 ft
Nearby Weather Stations

Elev 67 ft 29.55 °N, 95.62 °W | Updated 70 days ago

Clear
Clear
93 °F
Feels Like 95 °F
N
3
Wind Variable Wind from ENE
Gusts mph

Today
High -- | Low -- °F
--% Chance of Precip.
Yesterday
High -- | Low -- °F
Precip. -- in
6:57 AM 7:49 PM
Waxing Gibbous, 99% visible
Pressure 30.00 in
Visibility 10.0 miles
Clouds Clear
Heat Index 95 °F
Dew Point 65 °F
Humidity 40%
Rainfall in
Snow Depth Not available.
UV 11 out of 12
Pollen 5.50 out of 12
Air Quality Not available.
Flu Activity Not available.
METAR KSGR 281853Z 30004KT 10SM CLR 32/19 A2999 RMK AO2 SLP158 T03170194
Pressure 30.00 in
Visibility 10.0 miles
Clouds Clear
Heat Index 95 °F
Dew Point 65 °F
Humidity 40%
Rainfall in
Snow Depth Not available.
UV 11 out of 12
Pollen 5.50 out of 12
Air Quality Not available.
Flu Activity Not available.
METAR KSGR 281853Z 30004KT 10SM CLR 32/19 A2999 RMK AO2 SLP158 T03170194

10-Day Weather Forecast

×

Almanac

Astronomy

Aug. 28, 2015 Rise Set
Actual Time
Civil Twilight
Nautical Twilight
Astronomical Twilight
Moon
Length of Visible Light
Length of Day
Tomorrow will be .
, % of the Moon is Illuminated

Today's Extremes

State Highs State Lows

Community

WunderPhotos

Upload Photos

1,850,466 photos uploaded!

WunderBlogs® & News

Nearby

Air Quality

  Air Quality AQ Index Pollutant
Not available.

Snow Depth

Station Depth Elevation

Earthquake Activity

City Distance Mag. Time & Date
Minimum magnitude displayed is 2.5.

Coastal Water Temperatures

Place Temperature

Stations

Nearby Weather Stations

Station Location Temp. Windchill Dew Point Humidity Wind Precip. Elev Updated Type